Table Rock, Nebraska
Current Conditions -  °F | °C
As of 11:53 PM on Wednesday 22 Oct 2014 (Local Time) from KFNB Reporting Station
Light Rain Light Rain  
Wind Chill: 17°   Ceiling: 3600
Heat Index: 17°   Visibility: 8mi
Dew Point: 15°   Wind: 0mph
Humidity: 87%   Direction: NA
Pressure: 30.09"   Gusts: NA
Location:  40.18°N, 96.1°W
Report Text: KFNB 230453Z AUTO 00000KT 8SM -RA FEW027 BKN036 OVC044 17/15 A3009 RMK AO2 RAB00 SLP183 P0011 T01720150
Loading
Personal Weather Stations






























Interactive Weather Map
Tropical Storm Tracking
New forecast layout! Learn more

10-Day Weather Forecast

Advertisements
Track Severe Weather on mobile